Millerton, Iowa
Current Conditions -  °F | °C
As of 3:35 AM on Saturday 20 Dec 2014 (Local Time) from KCNC Reporting Station
Haze Haze  
Wind Chill: 26°   Ceiling: 900
Heat Index: 32°   Visibility: 3mi
Dew Point: 32°   Wind: 6mph
Humidity: 100%   Direction: 200°SSW
Pressure: 30.18"   Gusts: NA
Location:  40.85°N, 93.31°W
Report Text: KCNC 200935Z AUTO 20005KT 3SM BR FEW004 OVC009 M00/M00 A3018 RMK AO2
Loading
Personal Weather Stations






























Interactive Weather Map New forecast layout! Learn more

10-Day Weather Forecast

Advertisements
Track Severe Weather on mobile